createdAt,value
2022-10-25T00:00:39.473Z,14.6
2022-10-25T00:06:30.980Z,14.6
2022-10-25T00:12:30.976Z,14.5
2022-10-25T00:18:31.368Z,14.5
2022-10-25T00:24:31.093Z,14.4
2022-10-25T00:30:46.470Z,14.4
2022-10-25T00:36:30.787Z,14.3
2022-10-25T00:42:30.723Z,14.3
2022-10-25T00:48:30.547Z,14.3
2022-10-25T00:54:30.798Z,14.2
2022-10-25T01:00:41.815Z,14.2
2022-10-25T01:06:31.163Z,14.2
2022-10-25T01:12:31.003Z,14.2
2022-10-25T01:18:30.570Z,14.2
2022-10-25T01:24:30.497Z,14.2
2022-10-25T01:30:30.525Z,14.2
2022-10-25T01:36:30.852Z,14.1
2022-10-25T01:42:30.524Z,14.1
2022-10-25T01:48:30.623Z,14.1
2022-10-25T01:54:31.139Z,13.9
2022-10-25T02:00:30.725Z,13.9
2022-10-25T02:06:30.649Z,13.9
2022-10-25T02:12:30.550Z,14
2022-10-25T02:24:30.932Z,14.1
2022-10-25T02:30:41.596Z,14.2
2022-10-25T02:36:31.065Z,14.3
2022-10-25T02:42:31.238Z,14.3
2022-10-25T02:48:31.622Z,14.3
2022-10-25T02:54:30.841Z,14.4
2022-10-25T03:00:49.359Z,14.4
2022-10-25T03:06:32.377Z,14.4
2022-10-25T03:12:34.011Z,14.4
2022-10-25T03:18:32.507Z,14.5
2022-10-25T03:24:32.609Z,14.5
2022-10-25T03:30:56.417Z,14.6
2022-10-25T03:36:34.743Z,14.6
2022-10-25T03:42:31.909Z,14.7
2022-10-25T03:48:31.352Z,14.7
2022-10-25T03:54:30.872Z,14.7
2022-10-25T04:00:56.427Z,14.7
2022-10-25T04:06:33.728Z,14.7
2022-10-25T04:12:33.104Z,14.7
2022-10-25T04:18:31.476Z,14.7
2022-10-25T04:24:32.914Z,14.7
2022-10-25T04:30:53.870Z,14.7
2022-10-25T04:36:31.609Z,14.6
2022-10-25T04:42:33.860Z,14.6
2022-10-25T04:48:35.749Z,14.6
2022-10-25T04:54:32.784Z,14.5
2022-10-25T05:00:52.261Z,14.5
2022-10-25T05:06:32.926Z,14.5
2022-10-25T05:12:32.603Z,14.6
2022-10-25T05:18:31.571Z,14.6
2022-10-25T05:24:30.898Z,14.6
2022-10-25T05:30:56.353Z,14.4
2022-10-25T05:36:33.343Z,14.5
2022-10-25T05:42:32.600Z,14.6
2022-10-25T05:48:31.035Z,14.6
2022-10-25T05:54:31.977Z,14.6
2022-10-25T06:01:06.517Z,14.6
2022-10-25T06:06:43.694Z,14.6
2022-10-25T06:12:49.345Z,14.7
2022-10-25T06:18:37.628Z,14.8
2022-10-25T06:24:37.918Z,14.9
2022-10-25T06:30:54.736Z,14.9
2022-10-25T06:36:32.412Z,14.9
2022-10-25T06:42:42.054Z,14.8
2022-10-25T06:48:31.682Z,14.9
2022-10-25T06:54:32.331Z,14.9
2022-10-25T07:00:58.755Z,14.9
2022-10-25T07:06:33.562Z,15
2022-10-25T07:12:33.059Z,14.9
2022-10-25T07:18:52.189Z,15.1
2022-10-25T07:24:41.410Z,15.1
2022-10-25T07:30:55.479Z,15.2
2022-10-25T07:36:42.328Z,15.1
2022-10-25T07:42:39.452Z,15.3
2022-10-25T07:48:37.454Z,15.3
2022-10-25T07:54:32.116Z,15.5
2022-10-25T08:00:51.178Z,15.6
2022-10-25T08:06:33.229Z,15.7
2022-10-25T08:12:31.690Z,15.9
2022-10-25T08:18:31.032Z,16
2022-10-25T08:24:33.869Z,16
2022-10-25T08:30:55.400Z,16.3
2022-10-25T08:36:36.111Z,16.4
2022-10-25T08:42:37.996Z,16.5
2022-10-25T08:48:34.832Z,16.6
2022-10-25T08:54:31.356Z,16.6
2022-10-25T09:00:47.455Z,16.8
2022-10-25T09:06:34.521Z,16.9
2022-10-25T09:12:30.637Z,17
2022-10-25T09:18:30.599Z,17.1
2022-10-25T09:24:31.952Z,17.3
2022-10-25T09:30:48.952Z,17.3
2022-10-25T09:36:32.883Z,17.3
2022-10-25T09:42:32.647Z,17.4
2022-10-25T09:48:33.055Z,17.4
2022-10-25T09:54:31.677Z,17.4
2022-10-25T10:00:51.095Z,17.5
2022-10-25T10:06:35.372Z,17.5
2022-10-25T10:12:34.817Z,17.7
2022-10-25T10:18:32.628Z,17.8
2022-10-25T10:24:31.093Z,17.8
2022-10-25T10:30:54.657Z,17.8
2022-10-25T10:36:39.946Z,17.8
2022-10-25T10:48:33.147Z,17.9
2022-10-25T10:54:31.387Z,17.9
2022-10-25T11:01:00.041Z,18.1
2022-10-25T11:06:34.683Z,18
2022-10-25T11:12:41.077Z,18.1
2022-10-25T11:18:31.388Z,18.1
2022-10-25T11:24:31.103Z,18.1
2022-10-25T11:30:43.119Z,18.2
2022-10-25T11:36:30.946Z,18.2
2022-10-25T11:42:31.130Z,18.2
2022-10-25T11:48:30.631Z,18.3
2022-10-25T11:54:30.848Z,18.3
2022-10-25T12:00:45.774Z,18.3
2022-10-25T12:06:30.929Z,18.3
2022-10-25T12:12:31.028Z,18.3
2022-10-25T12:18:41.320Z,18.3
2022-10-25T12:24:42.112Z,18.4
2022-10-25T12:30:50.665Z,18.4
2022-10-25T12:36:36.047Z,18.5
2022-10-25T12:42:31.082Z,18.7
2022-10-25T12:48:30.723Z,18.7
2022-10-25T12:54:30.589Z,18.9
2022-10-25T13:00:30.713Z,19.6
2022-10-25T13:06:30.667Z,19.5
2022-10-25T13:12:31.032Z,19.1
2022-10-25T13:18:30.700Z,18.9
2022-10-25T13:24:30.765Z,18.9
2022-10-25T13:30:32.642Z,19.3
2022-10-25T13:36:31.032Z,19.6
2022-10-25T13:42:30.872Z,20.3
2022-10-25T13:48:31.290Z,20.3
2022-10-25T13:54:30.974Z,20.3
2022-10-25T14:00:36.441Z,20.8
2022-10-25T14:06:30.679Z,21.4
2022-10-25T14:12:31.938Z,22.1
2022-10-25T14:18:31.011Z,21.7
2022-10-25T14:24:31.095Z,21.7
2022-10-25T14:30:40.660Z,21.5
2022-10-25T14:36:31.633Z,20.9
2022-10-25T14:42:31.932Z,20.5
2022-10-25T14:48:31.441Z,20.3
2022-10-25T14:54:31.988Z,20.7
2022-10-25T15:00:41.664Z,20.7
2022-10-25T15:06:32.193Z,20.5
2022-10-25T15:12:31.270Z,20.4
2022-10-25T15:18:31.054Z,20.2
2022-10-25T15:24:30.886Z,19.7
2022-10-25T15:30:36.974Z,19.4
2022-10-25T15:36:31.589Z,19.2
2022-10-25T15:42:31.206Z,18.9
2022-10-25T15:48:32.294Z,18.9
2022-10-25T15:54:31.114Z,18.5
2022-10-25T16:00:46.127Z,18.4
2022-10-25T16:06:32.086Z,18.3
2022-10-25T16:12:31.182Z,18.2
2022-10-25T16:18:31.447Z,17.9
2022-10-25T16:24:30.990Z,17.7
2022-10-25T16:30:36.540Z,17.4
2022-10-25T16:36:32.021Z,17.3
2022-10-25T16:42:31.395Z,17.2
2022-10-25T16:48:31.826Z,17.1
2022-10-25T16:54:31.100Z,17.1
2022-10-25T17:00:50.535Z,17
2022-10-25T17:06:46.212Z,16.9
2022-10-25T17:12:31.641Z,16.9
2022-10-25T17:18:31.331Z,16.8
2022-10-25T17:24:31.644Z,16.7
2022-10-25T17:30:49.650Z,16.6
2022-10-25T17:36:31.580Z,16.4
2022-10-25T17:42:31.117Z,16.4
2022-10-25T17:48:31.696Z,16.2
2022-10-25T17:54:32.062Z,16
2022-10-25T18:00:55.104Z,15.9
2022-10-25T18:06:31.220Z,15.8
2022-10-25T18:12:31.247Z,15.5
2022-10-25T18:18:31.547Z,15.4
2022-10-25T18:24:31.748Z,15.3
2022-10-25T18:30:45.726Z,15.2
2022-10-25T18:36:31.650Z,15.2
2022-10-25T18:42:31.183Z,15
2022-10-25T18:48:32.353Z,14.9
2022-10-25T18:54:31.326Z,14.9
2022-10-25T19:00:52.655Z,14.9
2022-10-25T19:06:31.409Z,14.8
2022-10-25T19:12:31.630Z,14.7
2022-10-25T19:18:31.191Z,14.6
2022-10-25T19:24:31.554Z,14.6
2022-10-25T19:30:48.351Z,14.6
2022-10-25T19:36:31.710Z,14.5
2022-10-25T19:42:31.077Z,14.5
2022-10-25T19:48:31.206Z,14.4
2022-10-25T19:54:31.126Z,14.4
2022-10-25T20:00:47.962Z,14.4
2022-10-25T20:06:32.239Z,14.4
2022-10-25T20:12:31.713Z,14.3
2022-10-25T20:18:31.073Z,14.2
2022-10-25T20:24:31.125Z,14.2
2022-10-25T20:30:47.857Z,14.1
2022-10-25T20:36:31.382Z,14
2022-10-25T20:42:31.684Z,14.1
2022-10-25T20:48:42.097Z,14.1
2022-10-25T20:54:38.898Z,14
2022-10-25T21:00:49.070Z,14.1
2022-10-25T21:06:49.683Z,14.1
2022-10-25T21:12:40.846Z,14
2022-10-25T21:18:39.913Z,14
2022-10-25T21:24:42.078Z,14
2022-10-25T21:30:42.796Z,14
2022-10-25T21:36:41.896Z,14
2022-10-25T21:42:35.713Z,14.1
2022-10-25T21:48:31.787Z,14.1
2022-10-25T21:54:31.944Z,14
2022-10-25T22:01:23.842Z,14
2022-10-25T22:06:35.701Z,14.1
2022-10-25T22:12:41.636Z,14.1
2022-10-25T22:18:34.520Z,14.1
2022-10-25T22:24:39.924Z,14.1
2022-10-25T22:30:51.211Z,14.1
2022-10-25T22:36:34.500Z,14.1
2022-10-25T22:42:35.603Z,14.1
2022-10-25T22:48:40.489Z,14.1
2022-10-25T22:54:33.118Z,14.2
2022-10-25T23:00:54.789Z,14.2
2022-10-25T23:06:31.761Z,14.3
2022-10-25T23:12:37.552Z,14.3
2022-10-25T23:18:34.746Z,14.3
2022-10-25T23:24:33.529Z,14.3
2022-10-25T23:30:51.366Z,14.3
2022-10-25T23:36:31.794Z,14.4
2022-10-25T23:42:33.128Z,14.4
2022-10-25T23:48:31.721Z,14.4
2022-10-25T23:54:31.286Z,14.5
